North Bay Airport
CYYB : now visible

Airfield :











YOU CAN JOIN US ON...

 
LOGIN :

Register | Disclaimer

   EN    FR    IT 

 









Legend :    VFR   Marginal VFR   IFR   Intensive IFR   Very Intensive IFR
Visi :
Ceiling :
>= 8 km
>= 3000ft
5 to 8 km
1000 to 3000 ft
1500m to 5 km
500 to 1000 ft
800 to 1500m
200 to 500 ft
< 800m
< 200 ft
Symbols :   Thunderstorms  Fog  Heavy snow  Heavy precipitations  Wind > 20 kt






- Airport Elevation : 1215 ft
- IATA code : YYB


CYYB - North Bay

CURRENT METAR :
  • 141300Z 21008KT 30SM -RA BKN009 OVC027 04/03 A2965 RMK SC5SC3 SLP053

EXPIRED METARs :
  • 141215Z 21007KT 25SM -RA SCT044 BKN070 OVC100 04/02 A2966 RMK SC3AC3AC2 SLP057
  • 141200Z 21006KT 30SM FEW050 BKN080 OVC100 04/01 A2966 RMK SC2AC3AC3 SLP056
  • 141100Z 20002KT 25SM VCSH FEW055 SCT070 BKN095 02/M00 A2967 RMK SC2AC2AC3 SLP059
  • 141000Z AUTO 23005KT 9SM SCT091 BKN120 02/M00 A2968 RMK SLP064
  • 140900Z AUTO 23004KT 9SM BKN076 OVC093 03/M00 A2969 RMK SLP068

TAF AMD TAF CYYB
Valid from the 14 at 13:00 until the 14 at 20:00 UTC


141315Z 1413/1420 22005KT 5SM -RA BR BKN009 OVC025
TEMPO 1413/1415 P6SM -RA SCT009 OVC025
FM141500 VRB03KT 5SM -RA BR OVC008
TEMPO 1415/1420 P6SM -RA SCT008 OVC015 RMK FCST BASED ON AUTO OBS. NXT FCST BY 141400Z
CZYZ FIR / North America



MET'MAP, your aeronautical weather chart ! - Copyright ORBIFLY December 2007 - Disclaimer

ORBIFLY MET'MAP TEAM :

Programming & Development : Alexandra Zaïnal
Original concept : Baudouin d'Aumeries
Technical & hardware support : Manuel Goepfert
Assistance : Marc-Olivier Méhu




SOURCES & CREDITS :

   NOAA       Earth
Advisory